sensor_id;sensor_type;location;lat;lon;timestamp;pressure;altitude;pressure_sealevel;temperature;humidity
34370;BME280;20635;55.812;37.560;2022-07-03T00:01:17;99510.94;;;26.00;45.86
34370;BME280;20635;55.812;37.560;2022-07-03T00:03:43;99511.28;;;25.99;46.09
34370;BME280;20635;55.812;37.560;2022-07-03T00:06:09;99502.38;;;25.97;46.17
34370;BME280;20635;55.812;37.560;2022-07-03T00:08:35;99497.09;;;25.95;46.28
34370;BME280;20635;55.812;37.560;2022-07-03T00:11:01;99483.06;;;25.95;46.36
34370;BME280;20635;55.812;37.560;2022-07-03T00:13:27;99491.84;;;25.94;46.48
34370;BME280;20635;55.812;37.560;2022-07-03T00:15:52;99492.16;;;25.92;46.51
34370;BME280;20635;55.812;37.560;2022-07-03T00:18:18;99496.97;;;25.92;46.55
34370;BME280;20635;55.812;37.560;2022-07-03T00:20:55;99493.34;;;25.91;46.46
34370;BME280;20635;55.812;37.560;2022-07-03T00:23:24;99492.88;;;25.89;46.55
34370;BME280;20635;55.812;37.560;2022-07-03T00:25:50;99485.25;;;25.90;46.62
34370;BME280;20635;55.812;37.560;2022-07-03T00:28:17;99493.19;;;25.88;46.40
34370;BME280;20635;55.812;37.560;2022-07-03T00:30:45;99488.75;;;25.87;46.71
34370;BME280;20635;55.812;37.560;2022-07-03T00:33:12;99491.56;;;25.87;46.71
34370;BME280;20635;55.812;37.560;2022-07-03T00:35:39;99491.09;;;25.85;46.60
34370;BME280;20635;55.812;37.560;2022-07-03T00:38:04;99493.03;;;25.84;46.66
34370;BME280;20635;55.812;37.560;2022-07-03T00:40:30;99491.41;;;25.83;46.69
34370;BME280;20635;55.812;37.560;2022-07-03T00:42:59;99490.59;;;25.83;46.67
34370;BME280;20635;55.812;37.560;2022-07-03T00:45:24;99501.81;;;25.83;46.49
34370;BME280;20635;55.812;37.560;2022-07-03T00:47:51;99498.19;;;25.82;46.70
34370;BME280;20635;55.812;37.560;2022-07-03T00:50:16;99499.34;;;25.81;46.69
34370;BME280;20635;55.812;37.560;2022-07-03T00:52:46;99496.53;;;25.81;46.84
34370;BME280;20635;55.812;37.560;2022-07-03T00:55:14;99508.09;;;25.79;46.81
34370;BME280;20635;55.812;37.560;2022-07-03T00:57:43;99496.06;;;25.79;46.80
34370;BME280;20635;55.812;37.560;2022-07-03T01:00:09;99502.00;;;25.77;46.95
34370;BME280;20635;55.812;37.560;2022-07-03T01:10:39;99505.47;;;25.74;47.21
34370;BME280;20635;55.812;37.560;2022-07-03T01:13:07;99495.75;;;25.72;47.33
34370;BME280;20635;55.812;37.560;2022-07-03T01:20:36;99498.06;;;25.70;47.55
34370;BME280;20635;55.812;37.560;2022-07-03T01:23:03;99502.03;;;25.69;47.65
34370;BME280;20635;55.812;37.560;2022-07-03T01:25:41;99493.97;;;25.67;47.60
34370;BME280;20635;55.812;37.560;2022-07-03T01:28:09;99491.47;;;25.66;47.66
34370;BME280;20635;55.812;37.560;2022-07-03T01:30:40;99491.81;;;25.64;47.79
34370;BME280;20635;55.812;37.560;2022-07-03T01:33:11;99495.81;;;25.63;47.92
34370;BME280;20635;55.812;37.560;2022-07-03T01:35:41;99494.16;;;25.62;48.11
34370;BME280;20635;55.812;37.560;2022-07-03T01:38:12;99494.47;;;25.61;48.15
34370;BME280;20635;55.812;37.560;2022-07-03T01:40:38;99490.03;;;25.60;48.09
34370;BME280;20635;55.812;37.560;2022-07-03T01:43:08;99489.56;;;25.58;48.17
34370;BME280;20635;55.812;37.560;2022-07-03T01:45:36;99492.38;;;25.58;47.99
34370;BME280;20635;55.812;37.560;2022-07-03T01:48:03;99493.50;;;25.56;48.06
34370;BME280;20635;55.812;37.560;2022-07-03T01:50:30;99484.28;;;25.56;48.15
34370;BME280;20635;55.812;37.560;2022-07-03T01:52:56;99483.81;;;25.54;48.31
34370;BME280;20635;55.812;37.560;2022-07-03T01:55:22;99483.81;;;25.54;48.41
34370;BME280;20635;55.812;37.560;2022-07-03T01:57:49;99489.72;;;25.52;48.45
34370;BME280;20635;55.812;37.560;2022-07-03T02:00:19;99492.53;;;25.52;48.64
34370;BME280;20635;55.812;37.560;2022-07-03T02:02:58;99488.09;;;25.51;48.67
34370;BME280;20635;55.812;37.560;2022-07-03T02:05:38;99488.91;;;25.52;48.78
34370;BME280;20635;55.812;37.560;2022-07-03T02:13:23;99484.81;;;25.49;48.90
34370;BME280;20635;55.812;37.560;2022-07-03T02:15:51;99484.00;;;25.49;48.93
34370;BME280;20635;55.812;37.560;2022-07-03T02:18:33;99488.78;;;25.48;48.99
34370;BME280;20635;55.812;37.560;2022-07-03T02:23:26;99480.38;;;25.48;48.99
34370;BME280;20635;55.812;37.560;2022-07-03T02:25:54;99480.69;;;25.47;49.14
34370;BME280;20635;55.812;37.560;2022-07-03T02:28:24;99484.31;;;25.47;49.09
34370;BME280;20635;55.812;37.560;2022-07-03T02:30:57;99489.13;;;25.47;49.12
34370;BME280;20635;55.812;37.560;2022-07-03T02:33:25;99480.69;;;25.47;49.12
34370;BME280;20635;55.812;37.560;2022-07-03T02:35:53;99486.31;;;25.47;49.26
34370;BME280;20635;55.812;37.560;2022-07-03T02:38:21;99478.72;;;25.47;49.22
34370;BME280;20635;55.812;37.560;2022-07-03T02:43:34;99479.53;;;25.48;49.22
34370;BME280;20635;55.812;37.560;2022-07-03T02:46:04;99481.19;;;25.49;49.10
34370;BME280;20635;55.812;37.560;2022-07-03T02:48:51;99474.41;;;25.50;49.12
34370;BME280;20635;55.812;37.560;2022-07-03T02:51:22;99469.63;;;25.50;49.21
34370;BME280;20635;55.812;37.560;2022-07-03T02:53:59;99474.06;;;25.51;49.24
34370;BME280;20635;55.812;37.560;2022-07-03T03:04:11;99487.09;;;25.56;49.05
34370;BME280;20635;55.812;37.560;2022-07-03T03:06:41;99483.47;;;25.55;48.98
34370;BME280;20635;55.812;37.560;2022-07-03T03:09:07;99481.16;;;25.58;48.97
34370;BME280;20635;55.812;37.560;2022-07-03T03:14:05;99478.34;;;25.58;48.90
34370;BME280;20635;55.812;37.560;2022-07-03T03:16:33;99480.44;;;25.61;48.89
34370;BME280;20635;55.812;37.560;2022-07-03T03:19:01;99469.22;;;25.61;48.65
34370;BME280;20635;55.812;37.560;2022-07-03T03:21:27;99481.28;;;25.61;48.87
34370;BME280;20635;55.812;37.560;2022-07-03T03:23:56;99486.56;;;25.63;48.85
34370;BME280;20635;55.812;37.560;2022-07-03T03:26:24;99480.94;;;25.63;48.71
34370;BME280;20635;55.812;37.560;2022-07-03T03:28:50;99481.78;;;25.63;48.81
34370;BME280;20635;55.812;37.560;2022-07-03T03:31:17;99485.03;;;25.65;48.68
34370;BME280;20635;55.812;37.560;2022-07-03T03:33:48;99480.25;;;25.66;48.69
34370;BME280;20635;55.812;37.560;2022-07-03T03:36:14;99476.31;;;25.67;48.57
34370;BME280;20635;55.812;37.560;2022-07-03T03:38:41;99481.91;;;25.67;48.48
34370;BME280;20635;55.812;37.560;2022-07-03T03:41:07;99478.75;;;25.68;48.55
34370;BME280;20635;55.812;37.560;2022-07-03T03:43:33;99476.78;;;25.69;48.55
34370;BME280;20635;55.812;37.560;2022-07-03T03:45:59;99470.00;;;25.70;48.45
34370;BME280;20635;55.812;37.560;2022-07-03T03:48:28;99473.63;;;25.70;48.41
34370;BME280;20635;55.812;37.560;2022-07-03T03:50:54;99468.00;;;25.70;48.28
34370;BME280;20635;55.812;37.560;2022-07-03T03:53:20;99466.06;;;25.71;48.32
34370;BME280;20635;55.812;37.560;2022-07-03T03:55:53;99473.31;;;25.72;48.19
34370;BME280;20635;55.812;37.560;2022-07-03T03:58:19;99462.06;;;25.72;48.33
34370;BME280;20635;55.812;37.560;2022-07-03T04:00:44;99454.94;;;25.74;48.20
34370;BME280;20635;55.812;37.560;2022-07-03T04:03:10;99463.06;;;25.76;48.26
34370;BME280;20635;55.812;37.560;2022-07-03T04:05:35;99454.31;;;25.77;48.25
34370;BME280;20635;55.812;37.560;2022-07-03T04:08:01;99454.31;;;25.77;48.22
34370;BME280;20635;55.812;37.560;2022-07-03T04:10:27;99458.41;;;25.80;48.16
34370;BME280;20635;55.812;37.560;2022-07-03T04:12:52;99458.41;;;25.80;48.31
34370;BME280;20635;55.812;37.560;2022-07-03T04:15:18;99462.88;;;25.81;48.23
34370;BME280;20635;55.812;37.560;2022-07-03T04:17:43;99458.88;;;25.82;48.16
34370;BME280;20635;55.812;37.560;2022-07-03T04:20:09;99458.88;;;25.82;47.86
34370;BME280;20635;55.812;37.560;2022-07-03T04:22:35;99461.03;;;25.85;48.23
34370;BME280;20635;55.812;37.560;2022-07-03T04:25:01;99456.22;;;25.86;48.11
34370;BME280;20635;55.812;37.560;2022-07-03T04:27:26;99469.91;;;25.87;48.22
34370;BME280;20635;55.812;37.560;2022-07-03T04:29:52;99459.50;;;25.88;48.24
34370;BME280;20635;55.812;37.560;2022-07-03T04:32:17;99463.94;;;25.89;48.30
34370;BME280;20635;55.812;37.560;2022-07-03T04:34:43;99460.81;;;25.90;48.37
34370;BME280;20635;55.812;37.560;2022-07-03T04:37:09;99454.03;;;25.91;48.28
34370;BME280;20635;55.812;37.560;2022-07-03T04:39:34;99455.66;;;25.92;48.42
34370;BME280;20635;55.812;37.560;2022-07-03T04:42:00;99458.97;;;25.94;48.27
34370;BME280;20635;55.812;37.560;2022-07-03T04:44:25;99457.44;;;25.97;48.46
34370;BME280;20635;55.812;37.560;2022-07-03T04:46:51;99460.25;;;25.97;48.31
34370;BME280;20635;55.812;37.560;2022-07-03T04:49:17;99458.75;;;25.99;48.38
34370;BME280;20635;55.812;37.560;2022-07-03T04:51:42;99463.22;;;26.00;48.48
34370;BME280;20635;55.812;37.560;2022-07-03T04:54:08;99462.84;;;26.02;48.47
34370;BME280;20635;55.812;37.560;2022-07-03T04:56:33;99463.69;;;26.02;48.61
34370;BME280;20635;55.812;37.560;2022-07-03T04:58:59;99468.63;;;26.05;48.53
34370;BME280;20635;55.812;37.560;2022-07-03T05:01:25;99454.56;;;26.05;48.32
34370;BME280;20635;55.812;37.560;2022-07-03T05:03:50;99452.59;;;26.06;48.30
34370;BME280;20635;55.812;37.560;2022-07-03T05:06:16;99456.22;;;26.06;48.40
34370;BME280;20635;55.812;37.560;2022-07-03T05:08:41;99456.09;;;26.03;48.56
34370;BME280;20635;55.812;37.560;2022-07-03T05:11:07;99460.88;;;26.02;48.71
34370;BME280;20635;55.812;37.560;2022-07-03T05:13:33;99448.81;;;26.02;48.64
34370;BME280;20635;55.812;37.560;2022-07-03T05:15:59;99449.31;;;26.04;48.33
34370;BME280;20635;55.812;37.560;2022-07-03T05:18:25;99448.50;;;26.03;48.07
34370;BME280;20635;55.812;37.560;2022-07-03T05:20:53;99454.94;;;26.04;48.45
34370;BME280;20635;55.812;37.560;2022-07-03T05:23:18;99454.44;;;26.02;48.54
34370;BME280;20635;55.812;37.560;2022-07-03T05:25:44;99446.72;;;25.99;48.43
34370;BME280;20635;55.812;37.560;2022-07-03T05:28:10;99446.72;;;25.99;48.68
34370;BME280;20635;55.812;37.560;2022-07-03T05:30:35;99450.00;;;26.01;48.69
34370;BME280;20635;55.812;37.560;2022-07-03T05:33:01;99447.19;;;26.01;48.92
34370;BME280;20635;55.812;37.560;2022-07-03T05:35:26;99446.81;;;26.02;49.13
34370;BME280;20635;55.812;37.560;2022-07-03T05:37:52;99453.75;;;26.05;49.45
34370;BME280;20635;55.812;37.560;2022-07-03T05:40:18;99445.81;;;26.07;49.41
34370;BME280;20635;55.812;37.560;2022-07-03T05:42:43;99451.41;;;26.07;49.55
34370;BME280;20635;55.812;37.560;2022-07-03T05:45:10;99452.25;;;26.08;49.49
34370;BME280;20635;55.812;37.560;2022-07-03T05:47:35;99452.25;;;26.08;49.44
34370;BME280;20635;55.812;37.560;2022-07-03T05:50:01;99448.28;;;26.09;49.56
34370;BME280;20635;55.812;37.560;2022-07-03T05:52:27;99450.28;;;26.08;49.51
34370;BME280;20635;55.812;37.560;2022-07-03T05:54:52;99453.91;;;26.09;49.55
34370;BME280;20635;55.812;37.560;2022-07-03T05:57:18;99448.75;;;26.11;49.67
34370;BME280;20635;55.812;37.560;2022-07-03T05:59:46;99444.44;;;26.13;49.70
34370;BME280;20635;55.812;37.560;2022-07-03T06:02:12;99439.19;;;26.12;49.54
34370;BME280;20635;55.812;37.560;2022-07-03T06:04:37;99444.09;;;26.15;49.56
34370;BME280;20635;55.812;37.560;2022-07-03T06:07:03;99437.31;;;26.16;49.57
34370;BME280;20635;55.812;37.560;2022-07-03T06:09:29;99438.97;;;26.17;49.71
34370;BME280;20635;55.812;37.560;2022-07-03T06:11:54;99442.25;;;26.19;49.72
34370;BME280;20635;55.812;37.560;2022-07-03T06:14:20;99438.63;;;26.18;49.64
34370;BME280;20635;55.812;37.560;2022-07-03T06:16:46;99439.94;;;26.21;49.53
34370;BME280;20635;55.812;37.560;2022-07-03T06:19:11;99438.25;;;26.20;49.76
34370;BME280;20635;55.812;37.560;2022-07-03T06:21:37;99441.88;;;26.20;49.89
34370;BME280;20635;55.812;37.560;2022-07-03T06:24:03;99451.16;;;26.21;49.74
34370;BME280;20635;55.812;37.560;2022-07-03T06:26:28;99443.56;;;26.21;49.72
34370;BME280;20635;55.812;37.560;2022-07-03T06:28:57;99446.34;;;26.21;49.84
34370;BME280;20635;55.812;37.560;2022-07-03T06:31:22;99442.38;;;26.22;49.90
34370;BME280;20635;55.812;37.560;2022-07-03T06:33:48;99444.38;;;26.22;49.81
34370;BME280;20635;55.812;37.560;2022-07-03T06:36:14;99442.75;;;26.21;49.74
34370;BME280;20635;55.812;37.560;2022-07-03T06:38:39;99438.25;;;26.20;49.77
34370;BME280;20635;55.812;37.560;2022-07-03T06:41:05;99441.88;;;26.20;49.77
34370;BME280;20635;55.812;37.560;2022-07-03T06:43:31;99430.66;;;26.20;49.98
34370;BME280;20635;55.812;37.560;2022-07-03T06:45:56;99433.13;;;26.22;49.90
34370;BME280;20635;55.812;37.560;2022-07-03T06:48:22;99434.41;;;26.24;49.98
34370;BME280;20635;55.812;37.560;2022-07-03T06:50:47;99434.09;;;26.26;49.98
34370;BME280;20635;55.812;37.560;2022-07-03T06:53:14;99433.38;;;26.29;49.99
34370;BME280;20635;55.812;37.560;2022-07-03T06:55:39;99443.94;;;26.32;49.93
34370;BME280;20635;55.812;37.560;2022-07-03T06:58:05;99435.97;;;26.34;49.91
34370;BME280;20635;55.812;37.560;2022-07-03T07:00:31;99439.28;;;26.36;50.16
34370;BME280;20635;55.812;37.560;2022-07-03T07:02:56;99436.94;;;26.38;49.95
34370;BME280;20635;55.812;37.560;2022-07-03T07:05:22;99443.84;;;26.41;50.27
34370;BME280;20635;55.812;37.560;2022-07-03T07:07:48;99437.88;;;26.42;50.10
34370;BME280;20635;55.812;37.560;2022-07-03T07:10:14;99436.75;;;26.43;50.25
34370;BME280;20635;55.812;37.560;2022-07-03T07:12:39;99435.59;;;26.44;50.41
34370;BME280;20635;55.812;37.560;2022-07-03T07:15:05;99442.84;;;26.45;50.14
34370;BME280;20635;55.812;37.560;2022-07-03T07:17:32;99442.50;;;26.47;50.12
34370;BME280;20635;55.812;37.560;2022-07-03T07:19:58;99444.97;;;26.48;50.26
34370;BME280;20635;55.812;37.560;2022-07-03T07:22:23;99433.38;;;26.50;50.23
34370;BME280;20635;55.812;37.560;2022-07-03T07:24:51;99447.06;;;26.51;50.06
34370;BME280;20635;55.812;37.560;2022-07-03T07:27:16;99444.75;;;26.53;50.09
34370;BME280;20635;55.812;37.560;2022-07-03T07:29:42;99446.75;;;26.53;49.93
34370;BME280;20635;55.812;37.560;2022-07-03T07:32:08;99444.41;;;26.55;49.89
34370;BME280;20635;55.812;37.560;2022-07-03T07:34:34;99437.97;;;26.54;50.05
34370;BME280;20635;55.812;37.560;2022-07-03T07:36:59;99434.78;;;26.56;50.13
34370;BME280;20635;55.812;37.560;2022-07-03T07:39:25;99436.44;;;26.57;50.16
34370;BME280;20635;55.812;37.560;2022-07-03T07:41:50;99434.94;;;26.60;50.08
34370;BME280;20635;55.812;37.560;2022-07-03T07:44:16;99441.38;;;26.60;50.03
34370;BME280;20635;55.812;37.560;2022-07-03T07:46:42;99432.59;;;26.62;50.06
34370;BME280;20635;55.812;37.560;2022-07-03T07:49:07;99436.69;;;26.64;49.84
34370;BME280;20635;55.812;37.560;2022-07-03T07:51:33;99437.50;;;26.65;50.10
34370;BME280;20635;55.812;37.560;2022-07-03T07:53:58;99435.19;;;26.67;50.05
34370;BME280;20635;55.812;37.560;2022-07-03T07:56:25;99438.00;;;26.67;49.84
34370;BME280;20635;55.812;37.560;2022-07-03T07:58:51;99439.28;;;26.69;49.89
34370;BME280;20635;55.812;37.560;2022-07-03T08:01:19;99438.09;;;26.70;49.85
34370;BME280;20635;55.812;37.560;2022-07-03T08:04:03;99438.59;;;26.72;49.62
34370;BME280;20635;55.812;37.560;2022-07-03T08:07:04;99439.06;;;26.74;49.60
34370;BME280;20635;55.812;37.560;2022-07-03T08:09:30;99439.06;;;26.74;49.44
34370;BME280;20635;55.812;37.560;2022-07-03T08:11:55;99433.09;;;26.76;49.23
34370;BME280;20635;55.812;37.560;2022-07-03T08:14:21;99438.72;;;26.76;49.29
34370;BME280;20635;55.812;37.560;2022-07-03T08:16:47;99438.38;;;26.77;49.42
34370;BME280;20635;55.812;37.560;2022-07-03T08:19:12;99439.19;;;26.78;49.20
34370;BME280;20635;55.812;37.560;2022-07-03T08:21:38;99440.00;;;26.78;49.25
34370;BME280;20635;55.812;37.560;2022-07-03T08:24:03;99436.88;;;26.80;49.22
34370;BME280;20635;55.812;37.560;2022-07-03T08:26:29;99435.69;;;26.81;49.05
34370;BME280;20635;55.812;37.560;2022-07-03T08:28:55;99443.31;;;26.80;49.22
34370;BME280;20635;55.812;37.560;2022-07-03T08:31:22;99442.13;;;26.81;49.19
34370;BME280;20635;55.812;37.560;2022-07-03T08:33:48;99432.53;;;26.83;49.11
34370;BME280;20635;55.812;37.560;2022-07-03T08:36:13;99445.06;;;26.85;49.07
34370;BME280;20635;55.812;37.560;2022-07-03T08:38:39;99446.72;;;26.86;48.90
34370;BME280;20635;55.812;37.560;2022-07-03T08:41:04;99448.34;;;26.87;49.02
34370;BME280;20635;55.812;37.560;2022-07-03T08:43:30;99440.72;;;26.88;48.78
34370;BME280;20635;55.812;37.560;2022-07-03T08:45:56;99433.94;;;26.89;48.88
34370;BME280;20635;55.812;37.560;2022-07-03T08:48:23;99434.78;;;26.89;48.67
34370;BME280;20635;55.812;37.560;2022-07-03T08:50:50;99433.59;;;26.90;48.67
34370;BME280;20635;55.812;37.560;2022-07-03T08:53:15;99432.41;;;26.91;48.82
34370;BME280;20635;55.812;37.560;2022-07-03T08:55:42;99431.25;;;26.92;48.59
34370;BME280;20635;55.812;37.560;2022-07-03T08:58:09;99433.72;;;26.94;48.67
34370;BME280;20635;55.812;37.560;2022-07-03T09:00:35;99424.94;;;26.95;48.74
34370;BME280;20635;55.812;37.560;2022-07-03T09:03:01;99425.38;;;26.97;48.68
34370;BME280;20635;55.812;37.560;2022-07-03T09:05:29;99429.88;;;26.98;48.79
34370;BME280;20635;55.812;37.560;2022-07-03T09:07:55;99433.94;;;27.01;48.83
34370;BME280;20635;55.812;37.560;2022-07-03T09:10:22;99430.78;;;27.02;48.57
34370;BME280;20635;55.812;37.560;2022-07-03T09:12:48;99422.81;;;27.04;48.61
34370;BME280;20635;55.812;37.560;2022-07-03T09:15:14;99437.34;;;27.06;48.33
34370;BME280;20635;55.812;37.560;2022-07-03T09:17:39;99433.38;;;27.08;48.41
34370;BME280;20635;55.812;37.560;2022-07-03T09:20:06;99428.56;;;27.08;48.45
34370;BME280;20635;55.812;37.560;2022-07-03T09:22:33;99431.88;;;27.10;48.20
34370;BME280;20635;55.812;37.560;2022-07-03T09:27:31;99444.44;;;27.13;48.15
34370;BME280;20635;55.812;37.560;2022-07-03T09:29:57;99428.84;;;27.15;48.24
34370;BME280;20635;55.812;37.560;2022-07-03T09:32:24;99432.94;;;27.18;48.17
34370;BME280;20635;55.812;37.560;2022-07-03T09:35:06;99428.13;;;27.18;48.08
34370;BME280;20635;55.812;37.560;2022-07-03T09:37:34;99434.22;;;27.20;48.24
34370;BME280;20635;55.812;37.560;2022-07-03T09:40:00;99429.91;;;27.23;47.88
34370;BME280;20635;55.812;37.560;2022-07-03T09:42:27;99424.72;;;27.25;47.83
34370;BME280;20635;55.812;37.560;2022-07-03T09:44:53;99424.41;;;27.26;48.01
34370;BME280;20635;55.812;37.560;2022-07-03T09:47:20;99428.47;;;27.29;47.89
34370;BME280;20635;55.812;37.560;2022-07-03T09:49:48;99428.97;;;27.31;47.66
34370;BME280;20635;55.812;37.560;2022-07-03T09:52:35;99438.69;;;27.34;47.88
34370;BME280;20635;55.812;37.560;2022-07-03T09:55:01;99423.09;;;27.36;47.49
34370;BME280;20635;55.812;37.560;2022-07-03T09:57:30;99432.81;;;27.39;47.46
34370;BME280;20635;55.812;37.560;2022-07-03T10:05:18;99421.69;;;27.42;46.99
34370;BME280;20635;55.812;37.560;2022-07-03T10:07:51;99429.78;;;27.44;47.12
34370;BME280;20635;55.812;37.560;2022-07-03T10:10:20;99424.16;;;27.44;46.92
34370;BME280;20635;55.812;37.560;2022-07-03T10:12:48;99421.34;;;27.44;46.78
34370;BME280;20635;55.812;37.560;2022-07-03T10:15:13;99422.16;;;27.44;46.54
34370;BME280;20635;55.812;37.560;2022-07-03T10:17:40;99425.78;;;27.45;46.48
34370;BME280;20635;55.812;37.560;2022-07-03T10:20:07;99422.63;;;27.46;46.52
34370;BME280;20635;55.812;37.560;2022-07-03T10:22:34;99416.28;;;27.49;46.26
34370;BME280;20635;55.812;37.560;2022-07-03T10:25:02;99426.00;;;27.52;46.22
34370;BME280;20635;55.812;37.560;2022-07-03T10:27:28;99440.19;;;27.55;46.26
34370;BME280;20635;55.812;37.560;2022-07-03T10:29:54;99427.75;;;27.56;46.01
34370;BME280;20635;55.812;37.560;2022-07-03T10:32:20;99424.25;;;27.60;46.22
34370;BME280;20635;55.812;37.560;2022-07-03T10:34:46;99423.19;;;27.64;46.15
34370;BME280;20635;55.812;37.560;2022-07-03T10:37:13;99422.47;;;27.67;46.01
34370;BME280;20635;55.812;37.560;2022-07-03T10:42:48;99424.94;;;27.69;45.97
34370;BME280;20635;55.812;37.560;2022-07-03T10:45:34;99426.22;;;27.71;45.81
34370;BME280;20635;55.812;37.560;2022-07-03T10:48:00;99422.72;;;27.74;45.41
34370;BME280;20635;55.812;37.560;2022-07-03T10:50:25;99414.38;;;27.78;45.64
34370;BME280;20635;55.812;37.560;2022-07-03T10:52:51;99418.13;;;27.82;45.39
34370;BME280;20635;55.812;37.560;2022-07-03T10:55:17;99418.25;;;27.86;45.25
34370;BME280;20635;55.812;37.560;2022-07-03T10:57:44;99423.50;;;27.87;45.48
34370;BME280;20635;55.812;37.560;2022-07-03T11:00:28;99430.44;;;27.90;44.99
34370;BME280;20635;55.812;37.560;2022-07-03T11:02:54;99414.34;;;27.90;44.92
34370;BME280;20635;55.812;37.560;2022-07-03T11:15:33;99400.56;;;28.01;44.40
34370;BME280;20635;55.812;37.560;2022-07-03T11:20:34;99406.78;;;28.06;43.99
34370;BME280;20635;55.812;37.560;2022-07-03T11:25:40;99400.72;;;28.20;43.69
34370;BME280;20635;55.812;37.560;2022-07-03T11:28:06;99398.13;;;28.27;43.65
34370;BME280;20635;55.812;37.560;2022-07-03T11:30:31;99401.50;;;28.33;43.85
34370;BME280;20635;55.812;37.560;2022-07-03T11:32:58;99406.91;;;28.38;43.87
34370;BME280;20635;55.812;37.560;2022-07-03T11:35:44;99401.00;;;28.43;43.73
34370;BME280;20635;55.812;37.560;2022-07-03T11:38:19;99398.75;;;28.49;43.75
34370;BME280;20635;55.812;37.560;2022-07-03T11:40:45;99386.75;;;28.52;43.83
34370;BME280;20635;55.812;37.560;2022-07-03T11:43:11;99392.97;;;28.58;43.68
34370;BME280;20635;55.812;37.560;2022-07-03T11:45:40;99387.38;;;28.61;44.15
34370;BME280;20635;55.812;37.560;2022-07-03T11:48:09;99391.94;;;28.66;44.17
34370;BME280;20635;55.812;37.560;2022-07-03T11:50:35;99385.31;;;28.74;43.79
34370;BME280;20635;55.812;37.560;2022-07-03T11:53:14;99389.88;;;28.78;43.67
34370;BME280;20635;55.812;37.560;2022-07-03T11:55:50;99387.25;;;28.86;43.92
34370;BME280;20635;55.812;37.560;2022-07-03T11:58:16;99384.59;;;28.93;43.91
34370;BME280;20635;55.812;37.560;2022-07-03T12:00:41;99387.63;;;29.00;43.79
34370;BME280;20635;55.812;37.560;2022-07-03T12:03:07;99386.16;;;29.06;43.34
34370;BME280;20635;55.812;37.560;2022-07-03T12:05:33;99386.16;;;29.06;43.55
34370;BME280;20635;55.812;37.560;2022-07-03T12:08:05;99378.06;;;29.04;43.08
34370;BME280;20635;55.812;37.560;2022-07-03T12:10:40;99384.53;;;29.05;42.86
34370;BME280;20635;55.812;37.560;2022-07-03T12:13:19;99384.53;;;29.05;42.60
34370;BME280;20635;55.812;37.560;2022-07-03T12:15:45;99391.09;;;29.09;42.66
34370;BME280;20635;55.812;37.560;2022-07-03T12:18:11;99383.53;;;29.13;42.29
34370;BME280;20635;55.812;37.560;2022-07-03T12:20:36;99381.63;;;29.17;42.20
34370;BME280;20635;55.812;37.560;2022-07-03T12:23:02;99384.16;;;29.22;42.07
34370;BME280;20635;55.812;37.560;2022-07-03T12:25:29;99378.88;;;29.21;42.02
34370;BME280;20635;55.812;37.560;2022-07-03T12:27:54;99376.69;;;29.14;41.90
34370;BME280;20635;55.812;37.560;2022-07-03T12:30:21;99380.25;;;29.11;41.55
34370;BME280;20635;55.812;37.560;2022-07-03T12:32:53;99374.25;;;29.13;41.49
34370;BME280;20635;55.812;37.560;2022-07-03T12:35:22;99377.16;;;29.16;41.51
34370;BME280;20635;55.812;37.560;2022-07-03T12:37:48;99379.22;;;29.19;41.42
34370;BME280;20635;55.812;37.560;2022-07-03T12:40:14;99369.13;;;29.18;41.53
34370;BME280;20635;55.812;37.560;2022-07-03T12:42:58;99373.25;;;29.21;41.21
34370;BME280;20635;55.812;37.560;2022-07-03T12:45:25;99378.13;;;29.24;41.46
34370;BME280;20635;55.812;37.560;2022-07-03T12:47:58;99370.47;;;29.24;41.19
34370;BME280;20635;55.812;37.560;2022-07-03T12:50:24;99375.41;;;29.27;40.86
34370;BME280;20635;55.812;37.560;2022-07-03T12:55:26;99373.28;;;29.40;40.72
34370;BME280;20635;55.812;37.560;2022-07-03T13:00:55;99361.63;;;29.42;40.74
34370;BME280;20635;55.812;37.560;2022-07-03T13:03:30;99367.94;;;29.35;40.29
34370;BME280;20635;55.812;37.560;2022-07-03T13:05:56;99362.19;;;29.31;40.31
34370;BME280;20635;55.812;37.560;2022-07-03T13:08:22;99360.19;;;29.32;40.27
34370;BME280;20635;55.812;37.560;2022-07-03T13:10:57;99366.44;;;29.41;40.29
34370;BME280;20635;55.812;37.560;2022-07-03T13:13:24;99357.88;;;29.53;40.29
34370;BME280;20635;55.812;37.560;2022-07-03T13:15:49;99361.75;;;29.65;40.59
34370;BME280;20635;55.812;37.560;2022-07-03T13:18:15;99360.44;;;29.78;40.43
34370;BME280;20635;55.812;37.560;2022-07-03T13:20:41;99352.19;;;29.89;40.41
34370;BME280;20635;55.812;37.560;2022-07-03T13:23:06;99356.88;;;30.00;40.06
34370;BME280;20635;55.812;37.560;2022-07-03T13:25:33;99353.75;;;30.05;39.82
34370;BME280;20635;55.812;37.560;2022-07-03T13:28:09;99358.66;;;30.08;39.71
34370;BME280;20635;55.812;37.560;2022-07-03T13:30:35;99358.66;;;30.08;39.80
34370;BME280;20635;55.812;37.560;2022-07-03T13:33:01;99354.22;;;30.07;39.76
34370;BME280;20635;55.812;37.560;2022-07-03T13:35:27;99352.94;;;30.05;39.84
34370;BME280;20635;55.812;37.560;2022-07-03T13:37:53;99360.59;;;30.04;39.99
34370;BME280;20635;55.812;37.560;2022-07-03T13:40:19;99354.50;;;30.02;39.74
34370;BME280;20635;55.812;37.560;2022-07-03T13:42:44;99359.69;;;30.00;39.67
34370;BME280;20635;55.812;37.560;2022-07-03T13:45:10;99351.97;;;29.97;39.88
34370;BME280;20635;55.812;37.560;2022-07-03T13:47:36;99345.88;;;29.95;39.56
34370;BME280;20635;55.812;37.560;2022-07-03T13:50:02;99352.72;;;29.94;39.48
34370;BME280;20635;55.812;37.560;2022-07-03T13:52:28;99343.44;;;29.94;39.73
34370;BME280;20635;55.812;37.560;2022-07-03T13:54:53;99351.44;;;29.92;39.60
34370;BME280;20635;55.812;37.560;2022-07-03T13:57:19;99355.47;;;29.91;39.80